sensor_id;sensor_type;location;lat;lon;timestamp;pressure;altitude;pressure_sealevel;temperature;humidity
34893;BME280;21106;52.240;20.902;2023-08-06T00:02:56;99037.85;;;19.90;80.67
34893;BME280;21106;52.240;20.902;2023-08-06T00:08:03;99017.23;;;19.99;80.66
34893;BME280;21106;52.240;20.902;2023-08-06T00:13:09;99029.52;;;20.07;80.47
34893;BME280;21106;52.240;20.902;2023-08-06T00:18:15;99055.73;;;20.17;80.35
34893;BME280;21106;52.240;20.902;2023-08-06T00:23:21;99050.46;;;20.26;80.05
34893;BME280;21106;52.240;20.902;2023-08-06T00:28:28;99050.38;;;20.35;80.15
34893;BME280;21106;52.240;20.902;2023-08-06T00:33:34;99038.42;;;20.41;79.85
34893;BME280;21106;52.240;20.902;2023-08-06T00:38:40;99016.46;;;20.43;79.51
34893;BME280;21106;52.240;20.902;2023-08-06T00:43:47;98998.25;;;20.37;79.65
34893;BME280;21106;52.240;20.902;2023-08-06T00:48:53;98996.56;;;20.27;79.49
34893;BME280;21106;52.240;20.902;2023-08-06T00:53:59;98981.59;;;20.23;79.48
34893;BME280;21106;52.240;20.902;2023-08-06T00:59:07;98959.33;;;20.18;79.51
34893;BME280;21106;52.240;20.902;2023-08-06T01:04:13;98932.83;;;20.11;79.52
34893;BME280;21106;52.240;20.902;2023-08-06T01:09:35;98917.57;;;19.99;79.76
34893;BME280;21106;52.240;20.902;2023-08-06T01:15:07;98906.02;;;19.83;80.02
34893;BME280;21106;52.240;20.902;2023-08-06T01:20:16;98883.96;;;19.68;80.60
34893;BME280;21106;52.240;20.902;2023-08-06T01:25:30;98860.96;;;19.53;81.48
34893;BME280;21106;52.240;20.902;2023-08-06T01:30:39;98831.08;;;19.35;81.83
34893;BME280;21106;52.240;20.902;2023-08-06T01:35:49;98808.98;;;19.26;82.34
34893;BME280;21106;52.240;20.902;2023-08-06T01:40:55;98797.29;;;19.17;82.55
34893;BME280;21106;52.240;20.902;2023-08-06T01:46:01;98781.46;;;19.14;83.40
34893;BME280;21106;52.240;20.902;2023-08-06T01:51:07;98771.82;;;19.10;83.36
34893;BME280;21106;52.240;20.902;2023-08-06T01:56:14;98761.20;;;19.11;83.64
34893;BME280;21106;52.240;20.902;2023-08-06T02:01:20;98758.92;;;19.12;83.83
34893;BME280;21106;52.240;20.902;2023-08-06T02:06:26;98758.23;;;19.11;83.79
34893;BME280;21106;52.240;20.902;2023-08-06T02:11:32;98753.48;;;19.14;83.95
34893;BME280;21106;52.240;20.902;2023-08-06T02:16:39;98752.30;;;19.17;83.93
34893;BME280;21106;52.240;20.902;2023-08-06T02:21:45;98746.02;;;19.19;83.89
34893;BME280;21106;52.240;20.902;2023-08-06T02:26:52;98726.42;;;19.23;83.50
34893;BME280;21106;52.240;20.902;2023-08-06T02:32:01;98727.14;;;19.28;83.48
34893;BME280;21106;52.240;20.902;2023-08-06T02:37:08;98729.19;;;19.32;83.71
34893;BME280;21106;52.240;20.902;2023-08-06T02:42:14;98735.48;;;19.36;83.71
34893;BME280;21106;52.240;20.902;2023-08-06T02:47:20;98734.50;;;19.42;83.34
34893;BME280;21106;52.240;20.902;2023-08-06T02:52:26;98719.30;;;19.45;83.38
34893;BME280;21106;52.240;20.902;2023-08-06T02:57:32;98709.58;;;19.50;83.39
34893;BME280;21106;52.240;20.902;2023-08-06T03:02:39;98708.89;;;19.51;83.35
34893;BME280;21106;52.240;20.902;2023-08-06T03:07:56;98687.39;;;19.52;83.51
34893;BME280;21106;52.240;20.902;2023-08-06T03:13:04;98673.87;;;19.53;83.63
34893;BME280;21106;52.240;20.902;2023-08-06T03:18:11;98665.59;;;19.53;83.56
34893;BME280;21106;52.240;20.902;2023-08-06T03:23:17;98656.73;;;19.55;83.63
34893;BME280;21106;52.240;20.902;2023-08-06T03:28:24;98654.71;;;19.55;83.44
34893;BME280;21106;52.240;20.902;2023-08-06T03:33:30;98635.16;;;19.57;83.65
34893;BME280;21106;52.240;20.902;2023-08-06T03:38:38;98620.96;;;19.57;83.67
34893;BME280;21106;52.240;20.902;2023-08-06T03:43:46;98602.23;;;19.57;83.93
34893;BME280;21106;52.240;20.902;2023-08-06T03:48:57;98594.96;;;19.58;83.86
34893;BME280;21106;52.240;20.902;2023-08-06T03:54:04;98589.73;;;19.60;83.75
34893;BME280;21106;52.240;20.902;2023-08-06T03:59:10;98570.80;;;19.65;83.76
34893;BME280;21106;52.240;20.902;2023-08-06T04:04:17;98567.55;;;19.66;83.75
34893;BME280;21106;52.240;20.902;2023-08-06T04:09:23;98560.52;;;19.71;83.96
34893;BME280;21106;52.240;20.902;2023-08-06T04:14:29;98539.76;;;19.74;84.12
34893;BME280;21106;52.240;20.902;2023-08-06T04:19:37;98533.08;;;19.76;83.86
34893;BME280;21106;52.240;20.902;2023-08-06T04:24:43;98527.09;;;19.78;83.96
34893;BME280;21106;52.240;20.902;2023-08-06T04:29:49;98531.59;;;19.79;83.93
34893;BME280;21106;52.240;20.902;2023-08-06T04:34:55;98521.31;;;19.83;84.30
34893;BME280;21106;52.240;20.902;2023-08-06T04:40:02;98519.38;;;19.86;83.92
34893;BME280;21106;52.240;20.902;2023-08-06T04:45:09;98508.15;;;19.90;83.71
34893;BME280;21106;52.240;20.902;2023-08-06T04:50:15;98506.88;;;19.96;83.79
34893;BME280;21106;52.240;20.902;2023-08-06T04:55:21;98503.58;;;20.03;83.76
34893;BME280;21106;52.240;20.902;2023-08-06T05:00:27;98489.05;;;20.09;83.54
34893;BME280;21106;52.240;20.902;2023-08-06T05:05:34;98489.53;;;20.17;83.62
34893;BME280;21106;52.240;20.902;2023-08-06T05:10:43;98479.05;;;20.24;83.29
34893;BME280;21106;52.240;20.902;2023-08-06T05:15:49;98466.75;;;20.34;83.18
34893;BME280;21106;52.240;20.902;2023-08-06T05:20:55;98457.58;;;20.49;83.04
34893;BME280;21106;52.240;20.902;2023-08-06T05:26:02;98456.31;;;20.68;82.71
34893;BME280;21106;52.240;20.902;2023-08-06T05:31:08;98455.70;;;20.86;82.47
34893;BME280;21106;52.240;20.902;2023-08-06T05:36:14;98451.03;;;21.07;82.11
34893;BME280;21106;52.240;20.902;2023-08-06T05:41:20;98441.66;;;21.32;81.54
34893;BME280;21106;52.240;20.902;2023-08-06T05:46:28;98427.40;;;21.48;81.12
34893;BME280;21106;52.240;20.902;2023-08-06T05:51:34;98420.11;;;21.62;80.82
34893;BME280;21106;52.240;20.902;2023-08-06T05:56:40;98408.25;;;21.76;80.17
34893;BME280;21106;52.240;20.902;2023-08-06T06:01:46;98396.09;;;21.98;79.92
34893;BME280;21106;52.240;20.902;2023-08-06T06:07:00;98394.45;;;22.26;79.07
34893;BME280;21106;52.240;20.902;2023-08-06T06:12:07;98391.67;;;22.53;77.91
34893;BME280;21106;52.240;20.902;2023-08-06T06:17:18;98391.14;;;22.74;77.02
34893;BME280;21106;52.240;20.902;2023-08-06T06:22:24;98381.50;;;22.89;75.93
34893;BME280;21106;52.240;20.902;2023-08-06T06:27:31;98373.98;;;23.04;75.44
34893;BME280;21106;52.240;20.902;2023-08-06T06:32:39;98365.79;;;23.25;75.40
34893;BME280;21106;52.240;20.902;2023-08-06T06:37:46;98360.13;;;23.42;74.72
34893;BME280;21106;52.240;20.902;2023-08-06T06:42:53;98367.70;;;23.56;73.94
34893;BME280;21106;52.240;20.902;2023-08-06T06:47:59;98360.30;;;23.69;73.14
34893;BME280;21106;52.240;20.902;2023-08-06T06:53:06;98348.04;;;23.91;72.93
34893;BME280;21106;52.240;20.902;2023-08-06T06:58:13;98338.40;;;24.10;72.35
34893;BME280;21106;52.240;20.902;2023-08-06T07:03:20;98335.17;;;24.33;71.77
34893;BME280;21106;52.240;20.902;2023-08-06T07:08:26;98334.48;;;24.48;70.37
34893;BME280;21106;52.240;20.902;2023-08-06T07:13:33;98347.89;;;24.63;68.99
34893;BME280;21106;52.240;20.902;2023-08-06T07:18:40;98340.39;;;24.71;68.69
34893;BME280;21106;52.240;20.902;2023-08-06T07:23:46;98340.98;;;24.89;68.39
34893;BME280;21106;52.240;20.902;2023-08-06T07:28:52;98347.56;;;25.05;67.39
34893;BME280;21106;52.240;20.902;2023-08-06T07:34:02;98345.13;;;25.10;67.18
34893;BME280;21106;52.240;20.902;2023-08-06T07:39:09;98334.40;;;25.16;66.69
34893;BME280;21106;52.240;20.902;2023-08-06T07:44:15;98327.84;;;25.28;66.22
34893;BME280;21106;52.240;20.902;2023-08-06T07:49:21;98337.42;;;25.38;65.56
34893;BME280;21106;52.240;20.902;2023-08-06T07:54:27;98333.27;;;25.42;65.32
34893;BME280;21106;52.240;20.902;2023-08-06T07:59:35;98338.40;;;25.43;64.62
34893;BME280;21106;52.240;20.902;2023-08-06T08:04:41;98333.43;;;25.44;64.33
34893;BME280;21106;52.240;20.902;2023-08-06T08:09:48;98328.75;;;25.50;64.76
34893;BME280;21106;52.240;20.902;2023-08-06T08:14:55;98314.05;;;25.67;65.23
34893;BME280;21106;52.240;20.902;2023-08-06T08:20:01;98314.02;;;25.93;64.39
34893;BME280;21106;52.240;20.902;2023-08-06T08:25:07;98300.08;;;26.10;63.74
34893;BME280;21106;52.240;20.902;2023-08-06T08:30:13;98303.50;;;26.30;63.51
34893;BME280;21106;52.240;20.902;2023-08-06T08:35:20;98300.83;;;26.44;62.70
34893;BME280;21106;52.240;20.902;2023-08-06T08:40:31;98293.81;;;26.57;62.58
34893;BME280;21106;52.240;20.902;2023-08-06T08:45:39;98286.23;;;26.73;61.78
34893;BME280;21106;52.240;20.902;2023-08-06T08:50:47;98293.94;;;26.88;61.85
34893;BME280;21106;52.240;20.902;2023-08-06T08:55:53;98288.89;;;26.99;61.12
34893;BME280;21106;52.240;20.902;2023-08-06T09:01:00;98286.79;;;27.11;61.13
34893;BME280;21106;52.240;20.902;2023-08-06T09:06:07;98276.20;;;27.25;61.14
34893;BME280;21106;52.240;20.902;2023-08-06T09:11:17;98268.11;;;27.40;60.45
34893;BME280;21106;52.240;20.902;2023-08-06T09:16:26;98254.90;;;27.50;59.69
34893;BME280;21106;52.240;20.902;2023-08-06T09:21:32;98250.52;;;27.62;59.74
34893;BME280;21106;52.240;20.902;2023-08-06T09:26:43;98244.67;;;27.77;59.52
34893;BME280;21106;52.240;20.902;2023-08-06T09:31:50;98242.84;;;27.82;57.82
34893;BME280;21106;52.240;20.902;2023-08-06T09:36:59;98237.02;;;27.85;57.99
34893;BME280;21106;52.240;20.902;2023-08-06T09:42:05;98233.05;;;27.94;57.72
34893;BME280;21106;52.240;20.902;2023-08-06T09:47:11;98231.23;;;28.02;57.49
34893;BME280;21106;52.240;20.902;2023-08-06T09:52:18;98231.01;;;28.11;57.06
34893;BME280;21106;52.240;20.902;2023-08-06T09:57:24;98227.62;;;28.20;56.36
34893;BME280;21106;52.240;20.902;2023-08-06T10:02:31;98217.89;;;28.21;55.89
34893;BME280;21106;52.240;20.902;2023-08-06T10:07:38;98201.80;;;28.27;55.42
34893;BME280;21106;52.240;20.902;2023-08-06T10:12:49;98197.73;;;28.25;55.80
34893;BME280;21106;52.240;20.902;2023-08-06T10:17:56;98197.41;;;28.27;55.22
34893;BME280;21106;52.240;20.902;2023-08-06T10:23:05;98195.88;;;28.29;54.21
34893;BME280;21106;52.240;20.902;2023-08-06T10:28:12;98192.25;;;28.27;54.45
34893;BME280;21106;52.240;20.902;2023-08-06T10:33:23;98177.85;;;28.28;53.95
34893;BME280;21106;52.240;20.902;2023-08-06T10:38:29;98175.66;;;28.28;53.70
34893;BME280;21106;52.240;20.902;2023-08-06T10:43:37;98168.89;;;28.24;53.74
34893;BME280;21106;52.240;20.902;2023-08-06T10:48:45;98164.34;;;28.25;53.81
34893;BME280;21106;52.240;20.902;2023-08-06T10:53:51;98164.35;;;28.35;53.31
34893;BME280;21106;52.240;20.902;2023-08-06T10:58:57;98162.71;;;28.34;52.73
34893;BME280;21106;52.240;20.902;2023-08-06T11:04:05;98150.96;;;28.32;53.26
34893;BME280;21106;52.240;20.902;2023-08-06T11:09:11;98134.91;;;28.36;53.27
34893;BME280;21106;52.240;20.902;2023-08-06T11:14:17;98133.55;;;28.38;52.91
34893;BME280;21106;52.240;20.902;2023-08-06T11:19:24;98127.35;;;28.36;52.62
34893;BME280;21106;52.240;20.902;2023-08-06T11:24:30;98114.22;;;28.40;52.85
34893;BME280;21106;52.240;20.902;2023-08-06T11:29:38;98104.70;;;28.42;52.65
34893;BME280;21106;52.240;20.902;2023-08-06T11:34:44;98110.98;;;28.47;52.69
34893;BME280;21106;52.240;20.902;2023-08-06T11:39:51;98102.77;;;28.49;51.91
34893;BME280;21106;52.240;20.902;2023-08-06T11:44:57;98093.48;;;28.48;51.85
34893;BME280;21106;52.240;20.902;2023-08-06T11:50:03;98083.58;;;28.48;51.65
34893;BME280;21106;52.240;20.902;2023-08-06T11:55:10;98074.77;;;28.53;51.69
34893;BME280;21106;52.240;20.902;2023-08-06T12:00:17;98067.52;;;28.62;51.67
34893;BME280;21106;52.240;20.902;2023-08-06T12:05:29;98053.70;;;28.75;51.80
34893;BME280;21106;52.240;20.902;2023-08-06T12:10:35;98043.98;;;28.87;51.33
34893;BME280;21106;52.240;20.902;2023-08-06T12:15:41;98038.14;;;28.97;50.46
34893;BME280;21106;52.240;20.902;2023-08-06T12:20:47;98032.73;;;28.97;48.01
34893;BME280;21106;52.240;20.902;2023-08-06T12:25:53;98043.61;;;28.99;48.10
34893;BME280;21106;52.240;20.902;2023-08-06T12:31:19;98047.88;;;29.03;47.35
34893;BME280;21106;52.240;20.902;2023-08-06T12:37:13;98045.02;;;29.14;47.36
34893;BME280;21106;52.240;20.902;2023-08-06T12:42:19;98051.86;;;29.13;47.01
34893;BME280;21106;52.240;20.902;2023-08-06T12:47:28;98047.02;;;29.06;47.32
34893;BME280;21106;52.240;20.902;2023-08-06T12:52:41;98046.08;;;28.96;47.15
34893;BME280;21106;52.240;20.902;2023-08-06T12:58:29;98040.98;;;28.84;47.19
34893;BME280;21106;52.240;20.902;2023-08-06T13:04:08;98045.45;;;28.78;47.88
34893;BME280;21106;52.240;20.902;2023-08-06T13:10:16;98046.36;;;28.71;48.03
34893;BME280;21106;52.240;20.902;2023-08-06T13:15:41;98036.02;;;28.66;48.15
34893;BME280;21106;52.240;20.902;2023-08-06T13:20:49;98025.95;;;28.64;47.89
34893;BME280;21106;52.240;20.902;2023-08-06T13:31:03;98036.27;;;28.61;48.01
34893;BME280;21106;52.240;20.902;2023-08-06T13:36:09;98051.81;;;28.63;48.94
34893;BME280;21106;52.240;20.902;2023-08-06T13:41:18;98052.11;;;28.62;49.50
34893;BME280;21106;52.240;20.902;2023-08-06T13:46:24;98063.90;;;28.53;49.49
34893;BME280;21106;52.240;20.902;2023-08-06T13:51:38;98060.54;;;28.44;50.24
34893;BME280;21106;52.240;20.902;2023-08-06T13:56:44;98052.50;;;28.34;50.61
34893;BME280;21106;52.240;20.902;2023-08-06T14:01:51;98053.14;;;28.28;50.98
34893;BME280;21106;52.240;20.902;2023-08-06T14:07:01;98062.40;;;28.25;51.27
34893;BME280;21106;52.240;20.902;2023-08-06T14:12:07;98074.39;;;28.19;51.49
34893;BME280;21106;52.240;20.902;2023-08-06T14:17:14;98082.17;;;28.10;51.41
34893;BME280;21106;52.240;20.902;2023-08-06T14:22:23;98090.24;;;28.04;51.62
34893;BME280;21106;52.240;20.902;2023-08-06T14:27:45;98097.92;;;27.97;51.63
34893;BME280;21106;52.240;20.902;2023-08-06T14:33:03;98099.98;;;27.93;51.69
34893;BME280;21106;52.240;20.902;2023-08-06T14:38:10;98105.56;;;27.82;51.04
34893;BME280;21106;52.240;20.902;2023-08-06T14:43:17;98115.65;;;27.74;51.19
34893;BME280;21106;52.240;20.902;2023-08-06T14:48:26;98121.08;;;27.74;51.50
34893;BME280;21106;52.240;20.902;2023-08-06T14:53:38;98143.52;;;27.78;51.92
34893;BME280;21106;52.240;20.902;2023-08-06T14:58:46;98146.96;;;27.83;52.33
34893;BME280;21106;52.240;20.902;2023-08-06T15:03:55;98158.08;;;27.87;52.70
34893;BME280;21106;52.240;20.902;2023-08-06T15:09:12;98159.48;;;27.88;52.94
34893;BME280;21106;52.240;20.902;2023-08-06T15:14:22;98156.41;;;27.83;53.01
34893;BME280;21106;52.240;20.902;2023-08-06T15:19:29;98163.91;;;27.80;52.88
34893;BME280;21106;52.240;20.902;2023-08-06T15:24:35;98166.90;;;27.76;52.53
34893;BME280;21106;52.240;20.902;2023-08-06T15:29:49;98166.81;;;27.72;52.32
34893;BME280;21106;52.240;20.902;2023-08-06T15:34:55;98176.41;;;27.68;52.24
34893;BME280;21106;52.240;20.902;2023-08-06T15:40:01;98170.46;;;27.63;51.98
34893;BME280;21106;52.240;20.902;2023-08-06T15:45:29;98167.88;;;27.58;51.81
34893;BME280;21106;52.240;20.902;2023-08-06T15:50:37;98173.86;;;27.49;51.82
34893;BME280;21106;52.240;20.902;2023-08-06T15:55:49;98179.27;;;27.41;51.73
34893;BME280;21106;52.240;20.902;2023-08-06T16:00:57;98175.80;;;27.38;51.72
34893;BME280;21106;52.240;20.902;2023-08-06T16:06:24;98185.46;;;27.34;51.58
34893;BME280;21106;52.240;20.902;2023-08-06T16:11:32;98185.56;;;27.32;51.46
34893;BME280;21106;52.240;20.902;2023-08-06T16:16:38;98195.60;;;27.30;51.74
34893;BME280;21106;52.240;20.902;2023-08-06T16:21:45;98213.16;;;27.25;51.74
34893;BME280;21106;52.240;20.902;2023-08-06T16:27:11;98221.37;;;27.20;51.85
34893;BME280;21106;52.240;20.902;2023-08-06T16:32:32;98220.60;;;27.12;51.80
34893;BME280;21106;52.240;20.902;2023-08-06T16:38:02;98205.17;;;27.04;51.91
34893;BME280;21106;52.240;20.902;2023-08-06T16:43:45;98173.15;;;26.97;52.09
34893;BME280;21106;52.240;20.902;2023-08-06T16:48:52;98204.06;;;26.89;51.82
34893;BME280;21106;52.240;20.902;2023-08-06T16:53:59;98202.70;;;26.77;52.09
34893;BME280;21106;52.240;20.902;2023-08-06T16:59:05;98197.89;;;26.68;52.26
34893;BME280;21106;52.240;20.902;2023-08-06T17:04:12;98210.59;;;26.59;52.30
34893;BME280;21106;52.240;20.902;2023-08-06T17:09:18;98219.61;;;26.50;52.42
34893;BME280;21106;52.240;20.902;2023-08-06T17:14:24;98222.73;;;26.40;52.23
34893;BME280;21106;52.240;20.902;2023-08-06T17:19:31;98225.47;;;26.29;52.59
34893;BME280;21106;52.240;20.902;2023-08-06T17:24:37;98228.73;;;26.16;53.03
34893;BME280;21106;52.240;20.902;2023-08-06T17:29:44;98246.57;;;25.99;53.31
34893;BME280;21106;52.240;20.902;2023-08-06T17:34:52;98257.41;;;25.83;53.79
34893;BME280;21106;52.240;20.902;2023-08-06T17:40:00;98260.89;;;25.63;54.43
34893;BME280;21106;52.240;20.902;2023-08-06T17:45:07;98267.10;;;25.43;54.89
34893;BME280;21106;52.240;20.902;2023-08-06T17:50:16;98284.77;;;25.25;55.37
34893;BME280;21106;52.240;20.902;2023-08-06T17:55:25;98280.52;;;25.10;55.75
34893;BME280;21106;52.240;20.902;2023-08-06T18:00:32;98275.33;;;24.98;56.05
34893;BME280;21106;52.240;20.902;2023-08-06T18:05:39;98278.42;;;24.81;56.17
34893;BME280;21106;52.240;20.902;2023-08-06T18:10:45;98283.11;;;24.65;56.27
34893;BME280;21106;52.240;20.902;2023-08-06T18:15:52;98302.95;;;24.48;56.39
34893;BME280;21106;52.240;20.902;2023-08-06T18:20:58;98312.33;;;24.33;56.46
34893;BME280;21106;52.240;20.902;2023-08-06T18:26:04;98322.15;;;24.16;56.46
34893;BME280;21106;52.240;20.902;2023-08-06T18:31:11;98318.35;;;23.96;56.54
34893;BME280;21106;52.240;20.902;2023-08-06T18:36:18;98307.02;;;23.78;56.67
34893;BME280;21106;52.240;20.902;2023-08-06T18:41:24;98299.03;;;23.60;56.72
34893;BME280;21106;52.240;20.902;2023-08-06T18:46:35;98328.45;;;23.42;56.74
34893;BME280;21106;52.240;20.902;2023-08-06T18:51:43;98347.98;;;23.22;56.56
34893;BME280;21106;52.240;20.902;2023-08-06T18:56:49;98355.39;;;23.02;56.56
34893;BME280;21106;52.240;20.902;2023-08-06T19:01:55;98342.41;;;22.83;56.64
34893;BME280;21106;52.240;20.902;2023-08-06T19:07:02;98348.34;;;22.65;56.71
34893;BME280;21106;52.240;20.902;2023-08-06T19:12:08;98342.81;;;22.48;57.00
34893;BME280;21106;52.240;20.902;2023-08-06T19:17:14;98340.35;;;22.36;57.00
34893;BME280;21106;52.240;20.902;2023-08-06T19:22:23;98329.00;;;22.18;56.93
34893;BME280;21106;52.240;20.902;2023-08-06T19:27:30;98323.36;;;22.03;57.27
34893;BME280;21106;52.240;20.902;2023-08-06T19:32:38;98343.60;;;21.91;57.44
34893;BME280;21106;52.240;20.902;2023-08-06T19:37:45;98334.16;;;21.79;57.57
34893;BME280;21106;52.240;20.902;2023-08-06T19:42:54;98336.33;;;21.69;58.04
34893;BME280;21106;52.240;20.902;2023-08-06T19:48:01;98341.67;;;21.62;58.21
34893;BME280;21106;52.240;20.902;2023-08-06T19:53:07;98326.73;;;21.56;58.32
34893;BME280;21106;52.240;20.902;2023-08-06T19:58:13;98330.94;;;21.50;58.49
34893;BME280;21106;52.240;20.902;2023-08-06T20:03:21;98329.24;;;21.44;58.63
34893;BME280;21106;52.240;20.902;2023-08-06T20:08:27;98315.67;;;21.39;58.74
34893;BME280;21106;52.240;20.902;2023-08-06T20:13:33;98310.69;;;21.35;58.74
34893;BME280;21106;52.240;20.902;2023-08-06T20:18:41;98312.02;;;21.29;58.85
34893;BME280;21106;52.240;20.902;2023-08-06T20:23:47;98310.06;;;21.21;58.98
34893;BME280;21106;52.240;20.902;2023-08-06T20:28:54;98309.46;;;21.16;59.03
34893;BME280;21106;52.240;20.902;2023-08-06T20:34:00;98309.59;;;21.11;59.20
34893;BME280;21106;52.240;20.902;2023-08-06T20:39:06;98315.95;;;21.07;59.29
34893;BME280;21106;52.240;20.902;2023-08-06T20:44:13;98321.09;;;21.03;59.44
34893;BME280;21106;52.240;20.902;2023-08-06T20:49:19;98324.49;;;20.98;59.50
34893;BME280;21106;52.240;20.902;2023-08-06T20:54:26;98324.90;;;20.95;59.69
34893;BME280;21106;52.240;20.902;2023-08-06T20:59:32;98323.66;;;20.92;59.76
34893;BME280;21106;52.240;20.902;2023-08-06T21:04:41;98328.24;;;20.86;59.90
34893;BME280;21106;52.240;20.902;2023-08-06T21:09:47;98318.67;;;20.80;59.58
34893;BME280;21106;52.240;20.902;2023-08-06T21:14:53;98327.56;;;20.73;59.76
34893;BME280;21106;52.240;20.902;2023-08-06T21:20:00;98343.34;;;20.68;59.67
34893;BME280;21106;52.240;20.902;2023-08-06T21:25:06;98345.86;;;20.59;59.90
34893;BME280;21106;52.240;20.902;2023-08-06T21:30:13;98345.07;;;20.52;60.03
34893;BME280;21106;52.240;20.902;2023-08-06T21:35:19;98358.11;;;20.48;60.26
34893;BME280;21106;52.240;20.902;2023-08-06T21:40:26;98372.35;;;20.40;60.59
34893;BME280;21106;52.240;20.902;2023-08-06T21:45:36;98375.44;;;20.36;61.08
34893;BME280;21106;52.240;20.902;2023-08-06T21:50:42;98380.55;;;20.27;61.58
34893;BME280;21106;52.240;20.902;2023-08-06T21:55:49;98385.67;;;20.20;62.04
34893;BME280;21106;52.240;20.902;2023-08-06T22:00:55;98386.28;;;20.13;62.12
34893;BME280;21106;52.240;20.902;2023-08-06T22:06:02;98384.98;;;20.09;62.49
34893;BME280;21106;52.240;20.902;2023-08-06T22:11:09;98389.48;;;20.02;62.63
34893;BME280;21106;52.240;20.902;2023-08-06T22:16:15;98393.73;;;19.94;62.64
34893;BME280;21106;52.240;20.902;2023-08-06T22:21:22;98389.83;;;19.87;62.74
34893;BME280;21106;52.240;20.902;2023-08-06T22:26:28;98408.08;;;19.79;62.64
34893;BME280;21106;52.240;20.902;2023-08-06T22:31:35;98424.89;;;19.66;62.79
34893;BME280;21106;52.240;20.902;2023-08-06T22:36:41;98429.88;;;19.54;63.15
34893;BME280;21106;52.240;20.902;2023-08-06T22:41:48;98428.33;;;19.47;63.21
34893;BME280;21106;52.240;20.902;2023-08-06T22:46:55;98436.41;;;19.42;63.32
34893;BME280;21106;52.240;20.902;2023-08-06T22:52:01;98439.48;;;19.36;63.33
34893;BME280;21106;52.240;20.902;2023-08-06T22:57:08;98450.08;;;19.27;63.39
34893;BME280;21106;52.240;20.902;2023-08-06T23:02:14;98449.49;;;19.22;63.49
34893;BME280;21106;52.240;20.902;2023-08-06T23:07:20;98463.90;;;19.18;63.37
34893;BME280;21106;52.240;20.902;2023-08-06T23:12:27;98475.33;;;19.15;63.31
34893;BME280;21106;52.240;20.902;2023-08-06T23:17:33;98476.14;;;19.11;63.26
34893;BME280;21106;52.240;20.902;2023-08-06T23:22:40;98481.30;;;19.06;63.42
34893;BME280;21106;52.240;20.902;2023-08-06T23:27:47;98479.51;;;19.02;63.42
34893;BME280;21106;52.240;20.902;2023-08-06T23:32:53;98473.02;;;18.97;63.62
34893;BME280;21106;52.240;20.902;2023-08-06T23:38:00;98464.45;;;18.91;63.91
34893;BME280;21106;52.240;20.902;2023-08-06T23:43:06;98467.19;;;18.87;64.28
34893;BME280;21106;52.240;20.902;2023-08-06T23:48:13;98465.01;;;18.82;64.42
34893;BME280;21106;52.240;20.902;2023-08-06T23:53:19;98460.88;;;18.77;64.60
34893;BME280;21106;52.240;20.902;2023-08-06T23:58:25;98439.45;;;18.71;64.86
